Time;durP1;ratioP1;P1;durP2;ratioP2;P2;SDS_P1;SDS_P2;PMS_P1;PMS_P2;Temp;Humidity;BMP_temperature;BMP_pressure;BME280_temperature;BME280_humidity;BME280_pressure;Samples;Min_cycle;Max_cycle;Signal;HPM_P1;HPM_P2
2022/07/01 00:02:03;;;;;;;2.23;0.80;;;18.80;99.90;;;;;;5054993;28;20442;-78
2022/07/01 00:04:49;;;;;;;1.60;0.90;;;18.60;99.90;;;;;;5056678;28;20431;-78
2022/07/01 00:07:34;;;;;;;1.80;0.97;;;18.50;99.90;;;;;;5057003;28;20809;-78
2022/07/01 00:10:20;;;;;;;2.83;0.97;;;18.10;99.90;;;;;;5065831;28;20443;-78
2022/07/01 00:13:07;;;;;;;1.90;0.93;;;18.00;99.90;;;;;;5053805;28;20467;-76
2022/07/01 00:15:54;;;;;;;1.60;0.73;;;18.20;99.90;;;;;;5061290;28;20445;-78
2022/07/01 00:18:40;;;;;;;2.23;0.80;;;18.10;99.90;;;;;;5072791;28;20439;-78
2022/07/01 00:21:25;;;;;;;1.70;0.80;;;17.90;99.90;;;;;;5061803;28;21040;-77
2022/07/01 00:24:11;;;;;;;1.70;0.90;;;17.80;99.90;;;;;;5049873;28;20558;-77
2022/07/01 00:26:57;;;;;;;3.27;0.80;;;17.80;99.90;;;;;;5052136;28;20488;-78
2022/07/01 00:29:42;;;;;;;1.97;0.70;;;17.80;99.90;;;;;;5057405;28;20462;-78
2022/07/01 00:32:29;;;;;;;11.93;1.00;;;17.80;99.90;;;;;;5056285;28;20450;-77
2022/07/01 00:35:15;;;;;;;2.07;1.00;;;17.80;99.90;;;;;;5056727;28;20445;-77
2022/07/01 00:38:00;;;;;;;8.30;1.00;;;17.70;99.90;;;;;;5055958;28;20525;-77
2022/07/01 00:40:51;;;;;;;4.93;1.33;;;17.60;99.90;;;;;;5057815;28;20508;-77
2022/07/01 00:43:38;;;;;;;2.67;1.27;;;17.50;99.90;;;;;;5049482;28;20443;-78
2022/07/01 00:46:24;;;;;;;3.63;1.00;;;17.60;99.90;;;;;;5053842;28;20466;-77
2022/07/01 00:49:12;;;;;;;2.10;0.90;;;17.60;99.90;;;;;;5061560;28;20448;-76
2022/07/01 00:51:58;;;;;;;3.10;1.20;;;17.60;99.90;;;;;;5043046;28;20510;-78
2022/07/01 00:54:45;;;;;;;3.27;0.90;;;17.50;99.90;;;;;;5057711;28;20956;-78
2022/07/01 00:57:32;;;;;;;1.90;1.00;;;17.50;99.90;;;;;;5054456;28;20471;-77
2022/07/01 01:00:20;;;;;;;6.17;1.17;;;17.60;99.90;;;;;;5056194;28;20448;-77
2022/07/01 01:03:07;;;;;;;1.83;0.80;;;17.70;99.90;;;;;;5049522;28;20448;-78
2022/07/01 01:05:56;;;;;;;2.23;0.70;;;17.50;99.90;;;;;;5055872;28;20462;-77
2022/07/01 01:08:42;;;;;;;1.60;0.70;;;17.70;99.90;;;;;;5060134;28;20506;-77
2022/07/01 01:11:28;;;;;;;3.63;1.03;;;17.70;99.90;;;;;;5061635;28;20454;-78
2022/07/01 01:14:14;;;;;;;3.17;1.10;;;17.60;99.90;;;;;;5055687;28;20451;-77
2022/07/01 01:17:00;;;;;;;2.47;1.20;;;17.40;99.90;;;;;;5054247;28;20560;-77
2022/07/01 01:19:46;;;;;;;2.27;1.27;;;17.40;99.90;;;;;;5055177;28;20426;-78
2022/07/01 01:22:33;;;;;;;2.17;0.90;;;17.20;99.90;;;;;;5059175;28;20812;-76
2022/07/01 01:25:19;;;;;;;1.90;1.00;;;17.30;99.90;;;;;;5051234;28;20452;-78
2022/07/01 01:28:05;;;;;;;4.70;1.10;;;17.30;99.90;;;;;;5055825;28;20490;-77
2022/07/01 01:30:52;;;;;;;1.67;0.70;;;17.40;99.90;;;;;;5064978;28;20447;-78
2022/07/01 01:33:37;;;;;;;2.00;1.13;;;17.60;99.90;;;;;;5047996;28;20487;-77
2022/07/01 01:36:23;;;;;;;1.57;0.87;;;17.70;99.90;;;;;;5058897;28;20463;-78
2022/07/01 01:39:11;;;;;;;1.80;0.80;;;17.70;99.90;;;;;;5056501;28;20450;-77
2022/07/01 01:41:57;;;;;;;2.97;1.20;;;17.70;99.90;;;;;;5053075;28;20415;-78
2022/07/01 01:44:43;;;;;;;2.43;1.30;;;17.70;99.90;;;;;;5052098;28;20438;-78
2022/07/01 01:47:29;;;;;;;2.57;1.20;;;17.50;99.90;;;;;;5067007;28;20449;-77
2022/07/01 01:50:15;;;;;;;7.77;2.30;;;17.50;99.90;;;;;;5053570;28;21011;-77
2022/07/01 01:53:01;;;;;;;3.40;1.10;;;17.50;99.90;;;;;;5046570;28;20561;-76
2022/07/01 01:55:48;;;;;;;2.47;1.10;;;17.60;99.90;;;;;;5057068;28;20471;-77
2022/07/01 01:58:34;;;;;;;2.53;0.93;;;17.70;99.90;;;;;;5058826;28;20471;-77
2022/07/01 02:01:20;;;;;;;2.67;1.10;;;17.70;99.90;;;;;;5059249;28;20804;-77
2022/07/01 02:04:06;;;;;;;3.23;1.43;;;17.70;99.90;;;;;;5055290;28;20523;-77
2022/07/01 02:06:52;;;;;;;2.47;1.00;;;17.70;99.90;;;;;;5058545;28;20518;-78
2022/07/01 02:09:37;;;;;;;1.70;1.20;;;17.80;99.90;;;;;;5060886;28;20519;-77
2022/07/01 02:12:24;;;;;;;2.90;1.37;;;17.90;99.90;;;;;;5051779;28;20599;-77
2022/07/01 02:15:11;;;;;;;2.80;1.27;;;17.90;99.90;;;;;;5063488;28;20427;-75
2022/07/01 02:17:57;;;;;;;2.67;1.47;;;17.80;99.90;;;;;;5055969;28;20525;-78
2022/07/01 02:20:43;;;;;;;4.63;1.63;;;17.70;99.90;;;;;;5061321;28;20530;-77
2022/07/01 02:23:29;;;;;;;2.60;1.43;;;17.40;99.90;;;;;;5052872;28;20796;-77
2022/07/01 02:26:14;;;;;;;2.23;1.50;;;17.20;99.90;;;;;;5054344;28;20495;-77
2022/07/01 02:29:01;;;;;;;8.53;1.67;;;17.30;99.90;;;;;;5060579;28;20508;-77
2022/07/01 02:31:47;;;;;;;2.87;1.57;;;17.40;99.90;;;;;;5052837;28;20502;-77
2022/07/01 02:34:32;;;;;;;5.07;1.30;;;17.50;99.90;;;;;;5052218;28;20513;-77
2022/07/01 02:37:18;;;;;;;2.97;1.50;;;17.60;99.90;;;;;;5067179;28;20450;-77
2022/07/01 02:40:05;;;;;;;2.90;1.63;;;17.70;99.90;;;;;;5062560;28;20487;-77
2022/07/01 02:42:51;;;;;;;3.30;1.43;;;17.80;99.90;;;;;;5048298;28;20586;-78
2022/07/01 02:45:39;;;;;;;3.20;1.10;;;17.90;99.90;;;;;;5054824;28;20474;-77
2022/07/01 02:48:25;;;;;;;3.77;1.53;;;17.90;99.90;;;;;;5065646;28;20485;-78
2022/07/01 02:51:10;;;;;;;2.37;1.30;;;18.00;99.90;;;;;;5045603;28;20959;-78
2022/07/01 02:53:56;;;;;;;3.40;1.43;;;17.90;99.90;;;;;;5052836;28;20449;-77
2022/07/01 02:56:41;;;;;;;3.20;1.30;;;17.60;99.90;;;;;;5049190;28;20511;-77
2022/07/01 02:59:27;;;;;;;3.70;1.20;;;17.60;99.90;;;;;;5052914;28;20539;-77
2022/07/01 03:02:14;;;;;;;2.20;1.43;;;17.60;99.90;;;;;;5045994;28;20495;-76
2022/07/01 03:05:00;;;;;;;3.40;1.60;;;17.60;99.90;;;;;;5057279;28;21013;-78
2022/07/01 03:07:45;;;;;;;2.80;1.60;;;17.40;99.90;;;;;;5062306;28;20903;-77
2022/07/01 03:10:31;;;;;;;2.43;1.30;;;17.10;99.90;;;;;;5062316;28;20433;-78
2022/07/01 03:13:19;;;;;;;2.00;1.20;;;17.10;99.90;;;;;;5053234;28;20483;-77
2022/07/01 03:16:04;;;;;;;2.17;1.10;;;16.90;99.90;;;;;;5051887;28;21020;-78
2022/07/01 03:18:51;;;;;;;2.30;1.10;;;17.00;99.90;;;;;;5068648;28;20502;-78
2022/07/01 03:21:37;;;;;;;4.37;1.57;;;17.00;99.90;;;;;;5045814;28;20418;-76
2022/07/01 03:24:23;;;;;;;2.73;1.43;;;16.90;99.90;;;;;;5047603;28;20438;-78
2022/07/01 03:27:08;;;;;;;2.93;1.60;;;16.90;99.90;;;;;;5050910;28;20495;-78
2022/07/01 03:29:54;;;;;;;2.67;1.50;;;16.70;99.90;;;;;;5062033;28;20421;-77
2022/07/01 03:32:39;;;;;;;3.00;1.00;;;16.90;99.90;;;;;;5048509;28;20886;-76
2022/07/01 03:35:40;;;;;;;4.53;1.30;;;17.00;99.90;;;;;;5057592;28;20442;-77
2022/07/01 03:38:26;;;;;;;2.83;1.47;;;17.10;99.90;;;;;;5053862;28;20454;-77
2022/07/01 03:41:12;;;;;;;3.80;1.90;;;17.20;99.90;;;;;;5039535;28;20467;-77
2022/07/01 03:43:57;;;;;;;2.83;1.43;;;17.00;99.90;;;;;;5043572;28;20436;-77
2022/07/01 03:46:43;;;;;;;3.60;1.40;;;16.70;99.90;;;;;;5053866;28;20475;-77
2022/07/01 03:49:29;;;;;;;3.20;1.53;;;16.60;99.90;;;;;;5055420;28;20539;-77
2022/07/01 03:52:16;;;;;;;3.47;1.57;;;16.40;99.90;;;;;;5051265;28;20971;-77
2022/07/01 03:55:02;;;;;;;2.70;1.30;;;16.40;99.90;;;;;;5045893;28;20474;-77
2022/07/01 03:57:47;;;;;;;1.70;1.20;;;16.30;99.90;;;;;;5067243;28;20932;-77
2022/07/01 04:00:35;;;;;;;3.13;2.10;;;16.10;99.90;;;;;;5052615;28;20430;-77
2022/07/01 04:03:21;;;;;;;6.10;2.07;;;16.00;99.90;;;;;;5055587;28;20405;-77
2022/07/01 04:06:07;;;;;;;2.47;1.60;;;16.00;99.90;;;;;;5055366;28;20743;-76
2022/07/01 04:08:54;;;;;;;2.00;1.33;;;16.00;99.90;;;;;;5059536;28;20443;-75
2022/07/01 04:11:40;;;;;;;2.90;1.27;;;16.10;99.90;;;;;;5047826;28;20534;-77
2022/07/01 04:14:26;;;;;;;2.07;1.40;;;16.20;99.90;;;;;;5048430;28;20483;-78
2022/07/01 04:17:12;;;;;;;3.30;1.40;;;16.20;99.90;;;;;;5057658;28;20466;-77
2022/07/01 04:19:58;;;;;;;5.23;1.80;;;16.20;99.90;;;;;;5055325;28;20550;-77
2022/07/01 04:22:43;;;;;;;4.37;1.67;;;16.10;99.90;;;;;;5053457;28;20853;-77
2022/07/01 04:25:30;;;;;;;6.00;1.90;;;16.20;99.90;;;;;;5049803;28;20598;-77
2022/07/01 04:28:16;;;;;;;1.73;1.13;;;16.30;99.90;;;;;;5047680;28;20452;-75
2022/07/01 04:31:02;;;;;;;4.90;1.73;;;16.40;99.90;;;;;;5044116;28;20437;-77
2022/07/01 04:33:48;;;;;;;2.60;1.50;;;16.30;99.90;;;;;;5060621;28;20471;-77
2022/07/01 04:36:34;;;;;;;2.33;1.30;;;16.20;99.90;;;;;;5066575;28;21094;-77
2022/07/01 04:39:20;;;;;;;4.00;1.47;;;16.20;99.90;;;;;;5061373;28;20470;-77
2022/07/01 04:42:07;;;;;;;2.83;1.70;;;16.40;99.90;;;;;;5057720;28;20422;-78
2022/07/01 04:44:53;;;;;;;5.77;2.60;;;16.60;99.90;;;;;;5063205;28;20516;-77
2022/07/01 04:47:39;;;;;;;4.90;2.57;;;16.70;99.90;;;;;;5062009;28;20421;-77
2022/07/01 04:50:24;;;;;;;4.00;2.10;;;16.60;99.90;;;;;;5052729;28;20501;-77
2022/07/01 04:53:10;;;;;;;2.90;1.73;;;16.40;99.90;;;;;;5057193;28;21052;-77
2022/07/01 04:55:55;;;;;;;2.03;1.33;;;16.30;99.90;;;;;;5058168;28;20517;-76
2022/07/01 04:58:43;;;;;;;3.93;1.70;;;16.50;99.90;;;;;;5064601;28;20463;-77
2022/07/01 05:01:29;;;;;;;2.97;1.30;;;16.60;99.90;;;;;;5052452;28;20999;-77
2022/07/01 05:04:15;;;;;;;3.43;1.90;;;16.80;99.90;;;;;;5060412;28;20524;-77
2022/07/01 05:07:01;;;;;;;7.67;1.70;;;17.00;99.90;;;;;;5051446;28;20478;-77
2022/07/01 05:09:47;;;;;;;3.40;1.33;;;17.20;99.90;;;;;;5055297;28;20502;-78
2022/07/01 05:12:33;;;;;;;3.40;2.00;;;17.30;99.90;;;;;;5056806;28;20451;-76
2022/07/01 05:15:20;;;;;;;2.93;1.37;;;17.40;99.90;;;;;;5064891;28;20475;-77
2022/07/01 05:24:16;;;;;;;5.97;2.20;;;17.50;99.90;;;;;;5057085;28;20471;-77
2022/07/01 05:27:03;;;;;;;3.07;1.40;;;17.60;99.90;;;;;;5069900;22;20969;-73
2022/07/01 05:29:48;;;;;;;2.67;1.60;;;17.50;99.90;;;;;;5049752;28;20960;-74
2022/07/01 05:32:36;;;;;;;2.40;1.67;;;17.30;99.90;;;;;;5053054;28;20535;-73
2022/07/01 05:35:21;;;;;;;3.87;1.73;;;17.20;99.90;;;;;;5052444;28;20550;-74
2022/07/01 05:38:07;;;;;;;2.83;1.57;;;17.40;99.90;;;;;;5030645;28;20824;-73
2022/07/01 05:40:53;;;;;;;3.37;1.97;;;17.40;99.90;;;;;;5026547;28;20506;-74
2022/07/01 05:43:39;;;;;;;2.17;1.40;;;17.40;99.90;;;;;;5028952;28;20857;-73
2022/07/01 05:46:24;;;;;;;2.30;1.50;;;17.30;99.90;;;;;;5030336;28;20465;-73
2022/07/01 05:49:11;;;;;;;2.77;1.73;;;17.40;99.90;;;;;;5020157;28;20738;-73
2022/07/01 05:51:57;;;;;;;3.37;1.47;;;17.50;99.90;;;;;;5033876;28;20812;-73
2022/07/01 05:54:43;;;;;;;4.10;1.63;;;17.40;99.90;;;;;;5029005;28;20455;-72
2022/07/01 05:57:28;;;;;;;4.63;1.77;;;17.50;99.90;;;;;;5029139;28;20547;-72
2022/07/01 06:00:15;;;;;;;2.70;1.40;;;17.50;99.90;;;;;;5027221;28;20824;-72
2022/07/01 06:03:01;;;;;;;5.33;1.60;;;17.50;99.90;;;;;;5028337;28;20819;-72
2022/07/01 06:05:48;;;;;;;3.60;1.60;;;17.50;99.90;;;;;;5036736;28;20445;-73
2022/07/01 06:08:34;;;;;;;1.90;1.37;;;17.60;99.90;;;;;;5034154;28;20453;-73
2022/07/01 06:11:20;;;;;;;3.43;1.80;;;17.70;99.90;;;;;;5035026;28;20425;-73
2022/07/01 06:14:06;;;;;;;3.17;1.63;;;17.70;99.90;;;;;;5034803;28;20479;-73
2022/07/01 06:16:51;;;;;;;2.73;1.80;;;17.50;99.90;;;;;;5037911;28;21075;-73
2022/07/01 06:19:38;;;;;;;2.73;1.50;;;17.50;99.90;;;;;;5033232;28;20753;-72
2022/07/01 06:22:25;;;;;;;3.30;2.10;;;17.50;99.90;;;;;;5039610;28;20436;-73
2022/07/01 06:25:10;;;;;;;2.87;1.40;;;17.60;99.90;;;;;;5036039;28;20444;-72
2022/07/01 06:27:56;;;;;;;8.93;1.90;;;17.70;99.90;;;;;;5034704;28;20476;-73
2022/07/01 06:30:43;;;;;;;2.23;1.50;;;17.60;99.90;;;;;;5037771;28;20452;-73
2022/07/01 06:33:30;;;;;;;3.57;1.70;;;17.50;99.90;;;;;;5036342;28;20459;-72
2022/07/01 06:36:16;;;;;;;3.63;2.00;;;17.50;99.90;;;;;;5034985;28;20448;-74
2022/07/01 06:39:03;;;;;;;3.30;1.73;;;17.60;99.90;;;;;;5033763;28;20463;-74
2022/07/01 06:41:49;;;;;;;3.00;1.90;;;17.40;99.90;;;;;;5047978;28;20555;-73
2022/07/01 06:44:34;;;;;;;3.93;2.10;;;17.40;99.90;;;;;;5039282;28;20454;-73
2022/07/01 06:47:19;;;;;;;2.80;2.00;;;17.50;99.90;;;;;;5040074;28;20625;-73
2022/07/01 06:50:06;;;;;;;3.17;1.90;;;17.30;99.90;;;;;;5032768;28;20888;-73
2022/07/01 06:52:52;;;;;;;3.83;2.07;;;17.10;99.90;;;;;;5043100;28;20855;-73
2022/07/01 06:55:39;;;;;;;4.40;2.63;;;17.00;99.90;;;;;;5019734;28;20457;-73
2022/07/01 06:58:25;;;;;;;3.97;2.20;;;16.70;99.90;;;;;;5034269;28;20549;-73
2022/07/01 07:01:10;;;;;;;4.27;2.20;;;16.70;99.90;;;;;;5027996;28;20555;-74
2022/07/01 07:03:56;;;;;;;4.60;2.03;;;16.60;99.90;;;;;;5040130;28;20427;-73
2022/07/01 07:06:41;;;;;;;3.30;2.40;;;16.60;99.90;;;;;;5041224;28;20426;-73
2022/07/01 07:09:27;;;;;;;4.67;2.43;;;16.80;99.90;;;;;;5025859;28;20436;-73
2022/07/01 07:12:14;;;;;;;3.23;2.10;;;16.90;99.90;;;;;;5021011;28;20445;-73
2022/07/01 07:15:00;;;;;;;7.17;4.30;;;17.00;99.90;;;;;;5030689;28;20594;-73
2022/07/01 07:17:45;;;;;;;3.43;2.40;;;17.10;99.90;;;;;;5032712;28;20839;-73
2022/07/01 07:20:31;;;;;;;3.23;2.30;;;17.00;99.90;;;;;;5042256;28;20436;-74
2022/07/01 07:23:17;;;;;;;4.83;3.13;;;17.10;99.90;;;;;;5027254;28;20448;-73
2022/07/01 07:26:03;;;;;;;6.40;3.23;;;16.90;99.90;;;;;;5030402;28;20394;-73
2022/07/01 07:28:52;;;;;;;4.40;2.90;;;16.80;99.90;;;;;;5031741;28;20444;-73
2022/07/01 07:31:38;;;;;;;3.70;2.70;;;16.90;99.90;;;;;;5035640;28;20437;-74
2022/07/01 07:34:23;;;;;;;4.90;2.60;;;17.00;99.90;;;;;;5040820;28;20474;-74
2022/07/01 07:37:09;;;;;;;6.07;3.30;;;17.20;99.90;;;;;;5036469;28;20442;-73
2022/07/01 07:39:54;;;;;;;10.13;3.20;;;17.30;99.90;;;;;;5043816;28;20427;-73
2022/07/01 07:42:41;;;;;;;3.27;2.57;;;17.30;99.90;;;;;;5035871;28;20973;-73
2022/07/01 07:45:29;;;;;;;3.33;2.50;;;17.20;99.90;;;;;;5033071;28;20445;-73
2022/07/01 07:48:15;;;;;;;8.17;2.53;;;17.20;99.90;;;;;;5025765;28;20456;-73
2022/07/01 07:51:00;;;;;;;4.13;2.57;;;17.40;99.90;;;;;;5024915;28;20475;-73
2022/07/01 07:53:46;;;;;;;4.77;3.27;;;17.40;99.90;;;;;;5028451;28;20519;-73
2022/07/01 07:56:32;;;;;;;4.93;2.97;;;17.50;99.90;;;;;;5025554;28;20460;-73
2022/07/01 07:59:17;;;;;;;3.40;2.50;;;17.50;99.90;;;;;;5022727;28;20467;-73
2022/07/01 08:02:05;;;;;;;6.10;2.83;;;17.60;99.90;;;;;;5027353;28;20451;-73
2022/07/01 08:04:51;;;;;;;4.63;3.27;;;17.60;99.90;;;;;;5044357;28;20506;-73
2022/07/01 08:07:37;;;;;;;6.47;2.60;;;17.70;99.90;;;;;;5030044;28;20471;-74
2022/07/01 08:10:23;;;;;;;5.60;3.60;;;17.80;99.90;;;;;;5027382;28;20436;-73
2022/07/01 08:13:08;;;;;;;4.10;3.37;;;17.80;99.90;;;;;;5042481;28;20928;-73
2022/07/01 08:15:54;;;;;;;4.03;2.70;;;17.80;99.90;;;;;;5037454;28;20553;-72
2022/07/01 08:18:41;;;;;;;4.40;3.00;;;17.90;99.90;;;;;;5033574;28;20507;-73
2022/07/01 08:21:26;;;;;;;7.63;3.50;;;18.00;99.90;;;;;;5036358;28;20486;-73
2022/07/01 08:24:12;;;;;;;4.30;3.03;;;18.00;99.90;;;;;;5031760;28;20919;-73
2022/07/01 08:26:58;;;;;;;4.23;3.37;;;18.10;99.90;;;;;;5028557;28;20528;-73
2022/07/01 08:29:43;;;;;;;4.73;3.50;;;18.10;99.90;;;;;;5031522;28;20440;-73
2022/07/01 08:32:30;;;;;;;5.93;3.87;;;18.10;99.90;;;;;;5031288;28;20479;-74
2022/07/01 08:35:17;;;;;;;6.97;3.30;;;17.90;99.90;;;;;;5025308;28;20555;-73
2022/07/01 08:38:03;;;;;;;5.87;4.30;;;17.90;99.90;;;;;;5029083;28;20458;-73
2022/07/01 08:40:49;;;;;;;5.43;3.53;;;17.80;99.90;;;;;;5040055;28;21011;-74
2022/07/01 08:43:35;;;;;;;4.77;3.90;;;17.80;99.90;;;;;;5040403;28;20971;-73
2022/07/01 08:46:22;;;;;;;4.50;4.10;;;17.90;99.90;;;;;;5024282;28;20978;-74
2022/07/01 08:49:08;;;;;;;4.57;4.00;;;18.00;99.90;;;;;;5031448;28;20603;-73
2022/07/01 08:51:55;;;;;;;6.57;3.80;;;17.80;99.90;;;;;;5031636;28;20451;-73
2022/07/01 08:54:41;;;;;;;4.50;3.50;;;17.70;99.90;;;;;;5025822;28;20926;-74
2022/07/01 08:57:27;;;;;;;4.60;3.63;;;17.50;99.90;;;;;;5027200;28;20460;-74
2022/07/01 09:00:14;;;;;;;3.47;3.13;;;17.50;99.90;;;;;;5030404;28;20532;-73
2022/07/01 09:03:02;;;;;;;7.90;3.70;;;17.60;99.90;;;;;;5029570;28;20448;-74
2022/07/01 09:05:51;;;;;;;4.13;3.27;;;17.60;99.90;;;;;;5029013;28;20450;-74
2022/07/01 09:08:37;;;;;;;4.07;3.57;;;17.70;99.90;;;;;;5033418;28;20464;-74
2022/07/01 09:11:24;;;;;;;6.20;3.27;;;17.80;99.90;;;;;;5033450;28;20804;-74
2022/07/01 09:14:13;;;;;;;6.97;3.53;;;17.80;99.90;;;;;;5029056;28;21154;-73
2022/07/01 09:17:00;;;;;;;5.13;3.57;;;17.80;99.90;;;;;;5024605;28;20460;-74
2022/07/01 09:19:50;;;;;;;4.10;3.37;;;17.70;99.90;;;;;;5034061;28;20465;-73
2022/07/01 09:22:36;;;;;;;5.47;3.70;;;17.80;99.90;;;;;;5032695;28;20491;-74
2022/07/01 09:25:28;;;;;;;4.30;3.50;;;17.70;99.90;;;;;;5027368;28;20444;-74
2022/07/01 09:28:15;;;;;;;4.40;3.63;;;17.70;99.90;;;;;;5032398;28;20596;-73
2022/07/01 09:31:01;;;;;;;5.53;3.90;;;17.70;99.90;;;;;;5029507;28;20531;-73
2022/07/01 09:33:46;;;;;;;7.77;4.00;;;17.70;99.90;;;;;;5034100;28;20816;-74
2022/07/01 09:36:32;;;;;;;5.87;4.20;;;17.70;99.90;;;;;;5026848;28;20471;-75
2022/07/01 09:39:18;;;;;;;7.50;4.30;;;17.70;99.90;;;;;;5029998;28;20435;-74
2022/07/01 09:42:05;;;;;;;4.77;4.20;;;17.70;99.90;;;;;;5023363;28;20445;-74
2022/07/01 09:44:55;;;;;;;5.53;4.50;;;17.80;99.90;;;;;;5032545;28;20440;-75
2022/07/01 09:47:42;;;;;;;5.00;3.83;;;18.00;99.90;;;;;;5029318;28;20615;-73
2022/07/01 09:50:29;;;;;;;6.30;4.00;;;18.10;99.90;;;;;;5030020;28;20423;-74
2022/07/01 09:53:15;;;;;;;8.90;3.93;;;18.20;99.90;;;;;;5030943;28;20456;-73
2022/07/01 09:56:01;;;;;;;6.60;4.23;;;18.20;99.90;;;;;;5023424;28;20472;-73
2022/07/01 09:58:48;;;;;;;6.40;4.73;;;18.20;99.90;;;;;;5032512;28;20467;-73
2022/07/01 10:01:35;;;;;;;5.67;5.07;;;18.30;99.90;;;;;;5043680;28;20790;-74
2022/07/01 10:04:21;;;;;;;7.93;5.80;;;18.00;99.90;;;;;;5029431;28;20512;-74
2022/07/01 10:07:25;;;;;;;7.53;4.43;;;17.90;99.90;;;;;;5037803;28;20439;-72
2022/07/01 10:10:38;;;;;;;8.73;4.23;;;18.10;99.90;;;;;;5026436;28;20444;-73
2022/07/01 10:13:27;;;;;;;6.13;3.53;;;18.20;99.90;;;;;;5033276;28;20812;-73
2022/07/01 10:16:14;;;;;;;4.13;2.77;;;18.20;99.90;;;;;;5025572;28;20526;-74
2022/07/01 10:19:00;;;;;;;3.93;3.53;;;18.10;99.90;;;;;;5033830;28;21084;-73
2022/07/01 10:21:46;;;;;;;6.77;3.33;;;17.80;99.90;;;;;;5033241;28;20532;-73
2022/07/01 10:24:32;;;;;;;10.90;3.67;;;18.00;99.90;;;;;;5028101;28;20440;-73
2022/07/01 10:27:22;;;;;;;6.50;3.67;;;18.10;99.90;;;;;;5032989;28;20474;-73
2022/07/01 10:30:15;;;;;;;4.43;3.70;;;18.10;99.90;;;;;;5026945;28;20898;-73
2022/07/01 10:33:03;;;;;;;5.30;3.20;;;18.20;99.90;;;;;;5027867;28;20595;-73
2022/07/01 10:35:48;;;;;;;4.60;3.50;;;18.20;99.90;;;;;;5022490;28;20492;-72
2022/07/01 10:38:34;;;;;;;4.40;3.07;;;18.10;99.90;;;;;;5027273;28;20437;-71
2022/07/01 10:41:24;;;;;;;4.13;2.97;;;18.00;99.90;;;;;;5024579;28;20514;-72
2022/07/01 10:44:12;;;;;;;5.23;3.27;;;18.00;99.90;;;;;;5028599;28;20504;-72
2022/07/01 10:47:05;;;;;;;4.70;3.00;;;18.00;99.90;;;;;;5025659;28;20440;-72
2022/07/01 10:50:00;;;;;;;6.90;2.87;;;18.00;99.90;;;;;;5027722;28;20443;-71
2022/07/01 10:53:00;;;;;;;3.90;2.93;;;18.00;99.90;;;;;;5022869;28;20445;-72
2022/07/01 10:55:47;;;;;;;8.53;5.30;;;18.10;99.90;;;;;;5026509;28;20472;-73
2022/07/01 10:58:38;;;;;;;10.87;2.97;;;18.20;99.90;;;;;;5025449;28;20448;-72
2022/07/01 11:01:24;;;;;;;4.77;3.43;;;18.30;99.90;;;;;;5023582;28;20538;-73
2022/07/01 11:04:11;;;;;;;6.40;3.20;;;18.40;99.90;;;;;;5027077;28;20974;-73
2022/07/01 11:06:59;;;;;;;4.90;2.80;;;18.40;99.90;;;;;;5028816;28;20774;-73
2022/07/01 11:09:45;;;;;;;3.00;2.07;;;18.50;99.90;;;;;;5024086;28;20456;-72
2022/07/01 11:12:31;;;;;;;6.43;2.50;;;18.50;99.90;;;;;;5026618;28;20566;-73
2022/07/01 11:15:17;;;;;;;4.97;1.90;;;18.60;99.90;;;;;;5024669;28;20444;-73
2022/07/01 11:18:03;;;;;;;5.10;4.00;;;18.80;99.90;;;;;;5026138;28;21246;-72
2022/07/01 11:20:48;;;;;;;4.07;2.50;;;19.00;99.90;;;;;;5028299;28;20443;-72
2022/07/01 11:23:36;;;;;;;6.50;2.20;;;19.20;99.90;;;;;;5027831;28;20448;-72
2022/07/01 11:28:50;;;;;;;3.00;2.13;;;19.80;99.90;;;;;;5040560;28;20443;-76
2022/07/01 11:31:35;;;;;;;4.20;1.60;;;20.00;99.90;;;;;;5037470;28;20811;-76
2022/07/01 11:34:21;;;;;;;3.47;1.73;;;20.40;99.90;;;;;;5041099;28;20576;-73
2022/07/01 11:40:18;;;;;;;3.20;1.23;;;20.50;86.10;;;;;;5024618;28;20477;-75
2022/07/01 11:43:19;;;;;;;3.30;1.20;;;20.50;89.20;;;;;;5037292;28;20463;-75
2022/07/01 11:46:07;;;;;;;3.50;1.40;;;20.40;84.90;;;;;;5039850;28;20936;-75
2022/07/01 11:48:54;;;;;;;3.60;1.87;;;20.20;92.60;;;;;;5036390;28;20523;-75
2022/07/01 11:51:40;;;;;;;5.20;1.87;;;20.00;96.90;;;;;;5038873;28;20447;-76
2022/07/01 11:54:26;;;;;;;3.97;1.47;;;19.90;90.30;;;;;;5040126;28;20567;-75
2022/07/01 11:57:15;;;;;;;3.20;1.30;;;19.90;93.60;;;;;;5042046;28;20575;-76
2022/07/01 12:00:13;;;;;;;3.60;1.43;;;19.90;90.90;;;;;;5031794;28;20443;-75
2022/07/01 12:02:58;;;;;;;2.40;1.30;;;20.10;91.30;;;;;;5035386;28;20455;-75
2022/07/01 12:05:44;;;;;;;2.70;1.50;;;20.40;94.20;;;;;;5047126;28;20468;-73
2022/07/01 12:08:30;;;;;;;5.23;1.80;;;20.80;90.80;;;;;;5036208;28;20456;-73
2022/07/01 12:11:18;;;;;;;4.80;2.00;;;20.80;75.20;;;;;;5041715;28;20447;-73
2022/07/01 12:14:05;;;;;;;3.70;1.77;;;20.90;79.90;;;;;;5041189;28;20439;-72
2022/07/01 12:16:53;;;;;;;3.47;1.23;;;20.80;78.70;;;;;;5041322;28;20480;-75
2022/07/01 12:19:40;;;;;;;2.60;1.20;;;20.50;73.80;;;;;;5035380;28;20452;-75
2022/07/01 12:22:28;;;;;;;2.90;1.30;;;20.20;77.70;;;;;;5040004;28;20618;-73
2022/07/01 12:25:16;;;;;;;2.33;1.40;;;20.20;79.90;;;;;;5033852;28;20447;-72
2022/07/01 12:28:01;;;;;;;4.63;1.43;;;20.30;80.30;;;;;;5036523;28;20476;-73
2022/07/01 12:30:48;;;;;;;2.37;1.30;;;20.40;83.60;;;;;;5039183;28;20812;-73
2022/07/01 12:33:35;;;;;;;2.40;1.30;;;20.30;80.40;;;;;;5040545;28;20526;-73
2022/07/01 12:36:21;;;;;;;5.87;1.73;;;20.50;86.30;;;;;;5045138;28;20475;-73
2022/07/01 12:39:08;;;;;;;4.00;1.93;;;20.90;81.50;;;;;;5031039;28;20504;-72
2022/07/01 12:41:54;;;;;;;7.20;1.80;;;21.20;78.40;;;;;;5044210;28;20452;-72
2022/07/01 12:44:46;;;;;;;3.03;1.60;;;21.30;70.30;;;;;;5033132;28;20564;-73
2022/07/01 12:47:34;;;;;;;5.67;2.13;;;21.60;75.90;;;;;;5042638;28;20453;-73
2022/07/01 12:50:22;;;;;;;5.13;2.10;;;21.80;72.30;;;;;;5035929;28;20923;-73
2022/07/01 12:53:09;;;;;;;5.63;1.90;;;22.00;70.40;;;;;;5034429;28;20452;-73
2022/07/01 12:55:56;;;;;;;2.77;1.70;;;22.20;67.40;;;;;;5035696;28;20497;-74
2022/07/01 12:58:42;;;;;;;3.43;1.80;;;22.40;67.10;;;;;;5037776;28;21075;-75
2022/07/01 13:01:28;;;;;;;7.33;1.53;;;22.50;66.10;;;;;;5039760;28;20445;-74
2022/07/01 13:04:15;;;;;;;3.83;1.77;;;22.70;64.30;;;;;;5040269;28;20949;-74
2022/07/01 13:07:00;;;;;;;4.20;1.37;;;22.90;65.50;;;;;;5037602;28;20460;-75
2022/07/01 13:09:46;;;;;;;5.33;1.50;;;23.20;61.40;;;;;;5028178;28;20459;-75
2022/07/01 13:12:32;;;;;;;7.03;1.50;;;23.40;59.40;;;;;;5035884;28;20454;-75
2022/07/01 13:15:19;;;;;;;4.87;1.37;;;23.40;48.90;;;;;;5038878;28;20448;-75
2022/07/01 13:18:06;;;;;;;7.83;1.50;;;23.60;57.20;;;;;;5027409;28;20492;-75
2022/07/01 13:20:53;;;;;;;3.60;1.83;;;23.40;51.40;;;;;;5036815;28;20471;-75
2022/07/01 13:23:39;;;;;;;5.83;2.00;;;23.60;51.80;;;;;;5027542;28;20441;-74
2022/07/01 13:26:24;;;;;;;3.57;1.50;;;23.60;51.40;;;;;;5034785;28;20808;-75
2022/07/01 13:29:10;;;;;;;6.07;1.77;;;23.70;53.50;;;;;;5034838;28;20440;-74
2022/07/01 13:31:55;;;;;;;4.83;1.80;;;23.10;47.20;;;;;;5038515;28;20444;-74
2022/07/01 13:34:41;;;;;;;4.83;1.80;;;22.60;49.30;;;;;;5038979;28;20501;-75
2022/07/01 13:37:28;;;;;;;5.00;1.40;;;22.50;52.00;;;;;;5031311;28;20467;-75
2022/07/01 13:40:14;;;;;;;3.67;1.53;;;22.50;58.50;;;;;;5033602;28;20438;-75
2022/07/01 13:43:00;;;;;;;4.10;1.63;;;22.30;53.60;;;;;;5038468;28;20444;-74
2022/07/01 13:45:46;;;;;;;2.07;1.40;;;22.30;57.00;;;;;;5030403;28;20448;-74
2022/07/01 13:48:32;;;;;;;3.70;1.80;;;22.30;56.30;;;;;;5030991;28;20513;-74
2022/07/01 13:51:18;;;;;;;2.80;1.60;;;22.10;54.40;;;;;;5040414;28;20460;-74
2022/07/01 13:54:05;;;;;;;4.50;1.97;;;22.10;54.00;;;;;;5033404;28;20491;-74
2022/07/01 13:56:50;;;;;;;5.47;2.70;;;22.10;54.40;;;;;;5026662;28;21097;-74
2022/07/01 13:59:36;;;;;;;3.47;1.90;;;22.10;54.90;;;;;;5032014;28;20679;-74
2022/07/01 14:02:21;;;;;;;3.33;1.67;;;22.10;56.20;;;;;;5036706;28;20432;-74
2022/07/01 14:05:08;;;;;;;3.93;1.70;;;22.10;52.60;;;;;;5034514;28;20444;-74
2022/07/01 14:07:54;;;;;;;3.93;1.70;;;22.00;52.10;;;;;;5025754;28;20838;-74
2022/07/01 14:10:42;;;;;;;3.90;2.03;;;22.10;53.90;;;;;;5032537;28;20448;-74
2022/07/01 14:13:27;;;;;;;3.20;1.70;;;22.30;55.80;;;;;;5035464;28;20985;-74
2022/07/01 14:16:13;;;;;;;2.40;1.50;;;22.70;55.60;;;;;;5034010;28;20923;-74
2022/07/01 14:18:59;;;;;;;3.30;1.83;;;22.70;44.60;;;;;;5032653;28;21186;-74
2022/07/01 14:21:45;;;;;;;3.40;1.50;;;22.90;45.90;;;;;;5037057;28;20622;-75
2022/07/01 14:24:30;;;;;;;2.97;1.80;;;23.10;48.40;;;;;;5033081;28;20977;-75
2022/07/01 14:27:19;;;;;;;3.70;1.73;;;22.80;44.90;;;;;;5031380;28;20507;-74
2022/07/01 14:30:06;;;;;;;3.70;2.20;;;22.80;49.50;;;;;;5037264;28;20458;-74
2022/07/01 14:32:52;;;;;;;5.23;1.60;;;22.80;49.80;;;;;;5028624;28;20974;-75
2022/07/01 14:35:38;;;;;;;2.20;1.53;;;22.90;48.80;;;;;;5031330;28;20436;-74
2022/07/01 14:38:24;;;;;;;3.83;2.13;;;22.90;48.70;;;;;;5026056;28;20479;-74